Time;durP1;ratioP1;P1;durP2;ratioP2;P2;SDS_P1;SDS_P2;PMS_P1;PMS_P2;Temp;Humidity;BMP_temperature;BMP_pressure;BME280_temperature;BME280_humidity;BME280_pressure;Samples;Min_cycle;Max_cycle;Signal;HPM_P1;HPM_P2
2023/10/29 00:00:31;;;;;;;4.97;3.30;;;;;;;9.81;89.19;99555.11;1744203;82;21510;-70
2023/10/29 00:03:00;;;;;;;6.70;3.55;;;;;;;9.80;89.44;99559.42;1743991;81;21183;-73
2023/10/29 00:05:29;;;;;;;6.22;3.72;;;;;;;9.78;90.00;99556.91;1744193;82;21092;-71
2023/10/29 00:07:57;;;;;;;5.00;3.50;;;;;;;9.79;90.47;99551.75;1744416;82;21143;-70
2023/10/29 00:10:26;;;;;;;5.67;3.98;;;;;;;9.81;90.71;99552.91;1756736;82;21159;-70
2023/10/29 00:12:55;;;;;;;7.75;3.87;;;;;;;9.85;90.90;99552.79;1757483;80;21205;-71
2023/10/29 00:15:25;;;;;;;4.72;3.65;;;;;;;9.88;91.06;99559.73;1757253;82;21098;-70
2023/10/29 00:17:54;;;;;;;5.28;3.50;;;;;;;9.89;91.24;99563.62;1757375;81;21189;-71
2023/10/29 00:20:24;;;;;;;5.28;3.70;;;;;;;9.91;91.50;99566.98;1757620;82;21103;-72
2023/10/29 00:22:53;;;;;;;5.05;3.30;;;;;;;9.93;91.72;99569.50;1757471;81;21118;-72
2023/10/29 00:25:21;;;;;;;5.10;3.20;;;;;;;9.96;91.98;99569.08;1757218;82;21615;-69
2023/10/29 00:27:51;;;;;;;6.70;4.08;;;;;;;9.99;92.25;99575.48;1757343;82;21130;-71
2023/10/29 00:30:19;;;;;;;7.20;3.72;;;;;;;10.01;92.41;99574.75;1757408;82;21130;-70
2023/10/29 00:32:49;;;;;;;5.75;3.65;;;;;;;10.01;92.69;99587.06;1757262;82;21127;-71
2023/10/29 00:35:19;;;;;;;6.25;3.42;;;;;;;10.01;92.95;99588.43;1757475;82;21146;-70
2023/10/29 00:37:47;;;;;;;5.62;3.50;;;;;;;10.04;93.10;99592.11;1757466;82;21178;-70
2023/10/29 00:40:16;;;;;;;5.62;3.55;;;;;;;10.05;93.12;99591.05;1757397;81;21129;-71
2023/10/29 00:42:45;;;;;;;5.28;3.20;;;;;;;10.06;93.15;99592.20;1757512;82;21138;-70
2023/10/29 00:45:15;;;;;;;5.35;3.52;;;;;;;10.08;93.19;99598.31;1757485;80;21115;-70
2023/10/29 00:47:43;;;;;;;5.40;3.58;;;;;;;10.11;93.20;99588.30;1757442;82;21131;-72
2023/10/29 00:50:13;;;;;;;5.53;3.60;;;;;;;10.13;93.15;99589.45;1757428;82;21150;-70
2023/10/29 00:52:42;;;;;;;4.28;3.10;;;;;;;10.14;93.17;99596.61;1757257;82;21588;-71
2023/10/29 00:55:11;;;;;;;5.22;3.55;;;;;;;10.14;93.11;99593.34;1757289;82;21114;-71
2023/10/29 00:57:40;;;;;;;5.92;3.02;;;;;;;10.17;93.12;99600.28;1757339;82;21191;-71
2023/10/29 01:00:11;;;;;;;5.35;3.37;;;;;;;10.20;93.08;99595.78;1757233;82;21111;-70
2023/10/29 01:02:40;;;;;;;5.47;3.55;;;;;;;10.23;92.99;99604.09;1757277;82;21146;-70
2023/10/29 01:05:10;;;;;;;5.30;3.30;;;;;;;10.24;92.83;99603.88;1757512;82;21162;-70
2023/10/29 01:07:39;;;;;;;6.05;3.20;;;;;;;10.25;92.71;99608.83;1740743;82;21111;-70
2023/10/29 01:10:08;;;;;;;4.35;2.87;;;;;;;10.27;92.67;99610.81;1757131;80;21139;-70
2023/10/29 01:12:39;;;;;;;5.25;3.35;;;;;;;10.27;92.55;99610.81;1757624;80;21131;-71
2023/10/29 01:15:08;;;;;;;6.20;2.85;;;;;;;10.28;92.42;99607.02;1757461;82;21178;-71
2023/10/29 01:17:38;;;;;;;4.80;3.10;;;;;;;10.27;92.37;99606.71;1757222;82;21155;-70
2023/10/29 01:20:12;;;;;;;5.03;3.15;;;;;;;10.27;92.32;99613.03;1757241;82;21126;-71
2023/10/29 01:22:42;;;;;;;5.20;3.40;;;;;;;10.26;92.25;99611.34;1757479;82;21161;-72
2023/10/29 01:25:12;;;;;;;5.62;3.33;;;;;;;10.26;92.23;99618.19;1757285;80;21138;-71
2023/10/29 01:27:41;;;;;;;4.50;3.15;;;;;;;10.24;92.14;99618.94;1757313;82;21134;-71
2023/10/29 01:30:12;;;;;;;4.87;3.15;;;;;;;10.23;92.09;99621.36;1757460;82;21134;-71
2023/10/29 01:32:41;;;;;;;3.58;2.77;;;;;;;10.24;92.07;99626.30;1757195;82;21103;-69
2023/10/29 01:35:10;;;;;;;5.40;3.00;;;;;;;10.24;91.98;99631.78;1757217;82;21627;-71
2023/10/29 01:37:39;;;;;;;4.70;2.70;;;;;;;10.23;92.07;99638.31;1757213;82;21143;-72
2023/10/29 01:40:09;;;;;;;3.60;2.90;;;;;;;10.22;92.07;99632.52;1757284;82;21162;-72
2023/10/29 01:42:38;;;;;;;4.60;2.80;;;;;;;10.22;92.05;99636.10;1757232;82;21141;-71
2023/10/29 01:45:07;;;;;;;4.25;2.50;;;;;;;10.24;92.11;99629.05;1757220;82;21119;-71
2023/10/29 01:47:37;;;;;;;3.65;2.62;;;;;;;10.23;91.79;99622.73;1757206;82;21119;-70
2023/10/29 01:50:08;;;;;;;4.05;2.30;;;;;;;10.23;91.46;99628.73;1757436;81;21151;-72
2023/10/29 01:52:41;;;;;;;4.10;2.02;;;;;;;10.22;91.25;99630.63;1757277;82;21099;-72
2023/10/29 01:55:10;;;;;;;3.72;2.47;;;;;;;10.21;91.05;99641.79;1757427;82;21107;-71
2023/10/29 01:57:39;;;;;;;5.03;2.40;;;;;;;10.20;90.72;99645.05;1757489;82;21119;-71
2023/10/29 02:00:10;;;;;;;4.05;2.40;;;;;;;10.14;90.17;99660.41;1757405;82;21158;-70
2023/10/29 02:02:39;;;;;;;3.22;2.22;;;;;;;10.10;90.00;99661.05;1757224;81;22027;-71
2023/10/29 02:05:08;;;;;;;3.75;2.35;;;;;;;10.07;89.94;99666.95;1757246;80;21127;-72
2023/10/29 02:07:38;;;;;;;5.83;2.20;;;;;;;10.07;89.93;99679.27;1757220;82;21147;-69
2023/10/29 02:10:08;;;;;;;4.17;2.47;;;;;;;10.04;89.55;99683.79;1757171;82;21337;-71
2023/10/29 02:12:37;;;;;;;3.92;2.37;;;;;;;10.00;89.33;99688.00;1757218;81;21628;-71
2023/10/29 02:15:07;;;;;;;6.28;2.72;;;;;;;9.97;89.13;99693.91;1757370;82;21122;-72
2023/10/29 02:17:37;;;;;;;5.20;2.27;;;;;;;9.95;88.97;99700.11;1757419;82;21162;-71
2023/10/29 02:20:09;;;;;;;3.85;1.90;;;;;;;9.93;88.53;99694.84;1757282;82;21110;-70
2023/10/29 02:22:38;;;;;;;2.77;1.98;;;;;;;9.91;87.85;99696.11;1757382;80;21150;-71
2023/10/29 02:25:07;;;;;;;5.45;1.90;;;;;;;9.89;87.11;99700.95;1757428;80;21150;-74
2023/10/29 02:27:36;;;;;;;2.70;1.82;;;;;;;9.85;86.19;99706.00;1757412;82;21147;-72
2023/10/29 02:30:07;;;;;;;3.60;2.20;;;;;;;9.81;85.61;99699.27;1757378;80;21091;-70
2023/10/29 02:32:36;;;;;;;2.42;1.70;;;;;;;9.78;85.15;99706.00;1757409;80;21526;-72
2023/10/29 02:35:07;;;;;;;4.37;2.20;;;;;;;9.76;84.74;99708.11;1757391;82;21190;-70
2023/10/29 02:37:36;;;;;;;3.85;1.98;;;;;;;9.74;84.47;99712.91;1741062;82;21150;-72
2023/10/29 02:40:08;;;;;;;3.37;2.02;;;;;;;9.73;84.12;99719.44;1757210;82;21107;-72
2023/10/29 02:42:37;;;;;;;5.03;1.90;;;;;;;9.72;83.59;99730.06;1757217;82;21185;-72
2023/10/29 02:45:07;;;;;;;3.62;2.15;;;;;;;9.69;83.21;99735.95;1757204;81;21154;-71
2023/10/29 02:47:36;;;;;;;3.85;2.00;;;;;;;9.68;82.85;99743.00;1757313;82;21621;-71
2023/10/29 02:50:06;;;;;;;2.70;2.00;;;;;;;9.66;82.52;99747.83;1757537;82;21154;-71
2023/10/29 02:52:35;;;;;;;5.10;2.20;;;;;;;9.65;82.32;99755.72;1757319;82;21110;-71
2023/10/29 02:55:06;;;;;;;3.17;2.20;;;;;;;9.62;82.03;99752.88;1757348;82;21153;-72
2023/10/29 02:57:36;;;;;;;3.22;2.22;;;;;;;9.62;81.99;99756.98;1757549;82;21123;-70
2023/10/29 03:00:06;;;;;;;3.20;2.20;;;;;;;9.64;81.75;99763.08;1757295;82;21130;-71
2023/10/29 03:02:36;;;;;;;3.60;2.40;;;;;;;9.62;81.57;99761.08;1757225;82;21612;-70
2023/10/29 03:05:08;;;;;;;3.12;2.17;;;;;;;9.62;81.48;99759.71;1757353;82;21122;-70
2023/10/29 03:07:37;;;;;;;3.33;2.00;;;;;;;9.65;81.41;99773.50;1757493;81;21150;-70
2023/10/29 03:10:07;;;;;;;3.33;2.17;;;;;;;9.64;81.05;99787.70;1757357;81;21174;-71
2023/10/29 03:12:36;;;;;;;3.20;2.20;;;;;;;9.59;80.86;99786.63;1757374;82;21166;-71
2023/10/29 03:15:05;;;;;;;2.85;2.20;;;;;;;9.55;80.85;99791.67;1757316;82;21146;-70
2023/10/29 03:17:34;;;;;;;3.92;2.17;;;;;;;9.56;80.92;99790.63;1757516;81;21111;-70
2023/10/29 03:20:04;;;;;;;6.37;2.50;;;;;;;9.55;80.79;99797.14;1757264;82;21734;-71
2023/10/29 03:22:34;;;;;;;2.95;2.08;;;;;;;9.53;80.78;99802.82;1757316;82;21174;-71
2023/10/29 03:25:04;;;;;;;4.65;2.20;;;;;;;9.54;80.89;99804.50;1757476;82;21095;-71
2023/10/29 03:27:36;;;;;;;3.12;2.12;;;;;;;9.56;80.96;99807.55;1757429;81;22125;-71
2023/10/29 03:30:06;;;;;;;3.98;2.10;;;;;;;9.57;80.90;99816.08;1757668;81;21107;-71
2023/10/29 03:32:38;;;;;;;4.78;2.60;;;;;;;9.57;80.79;99807.35;1757617;82;21134;-72
2023/10/29 03:35:07;;;;;;;3.92;2.33;;;;;;;9.57;80.74;99808.72;1757503;82;21111;-71
2023/10/29 03:37:37;;;;;;;4.35;2.80;;;;;;;9.55;80.64;99813.55;1757244;82;21176;-71
2023/10/29 03:40:08;;;;;;;6.37;3.10;;;;;;;9.55;80.66;99801.24;1757474;82;21170;-72
2023/10/29 03:42:38;;;;;;;3.70;2.50;;;;;;;9.54;80.76;99811.87;1757700;81;21167;-71
2023/10/29 03:45:09;;;;;;;5.30;2.83;;;;;;;9.53;80.62;99808.28;1757318;80;21382;-71
2023/10/29 03:47:37;;;;;;;4.80;3.30;;;;;;;9.51;80.49;99806.80;1757426;82;21162;-71
2023/10/29 03:50:08;;;;;;;5.75;4.05;;;;;;;9.52;80.64;99811.23;1757245;81;21158;-71
2023/10/29 03:52:37;;;;;;;4.53;3.40;;;;;;;9.53;80.63;99804.71;1757340;81;21151;-70
2023/10/29 03:55:07;;;;;;;5.62;3.75;;;;;;;9.54;80.64;99809.13;1757498;82;21099;-70
2023/10/29 03:57:37;;;;;;;6.42;3.30;;;;;;;9.53;80.51;99803.34;1757449;82;21106;-68
2023/10/29 04:00:07;;;;;;;5.40;2.75;;;;;;;9.54;80.51;99810.50;1757509;80;21644;-70
2023/10/29 04:02:42;;;;;;;5.15;2.02;;;;;;;9.55;80.46;99803.98;1757462;81;21095;-72
2023/10/29 04:05:11;;;;;;;5.55;2.72;;;;;;;9.54;80.56;99803.66;1757501;82;21115;-70
2023/10/29 04:07:42;;;;;;;3.85;2.65;;;;;;;9.54;80.54;99795.45;1757480;82;21099;-72
2023/10/29 04:10:10;;;;;;;6.47;2.50;;;;;;;9.53;80.53;99789.67;1757197;82;21574;-71
2023/10/29 04:12:39;;;;;;;6.50;3.45;;;;;;;9.50;80.47;99798.28;1757303;81;21122;-72
2023/10/29 04:15:09;;;;;;;7.25;2.72;;;;;;;9.45;80.42;99800.27;1757270;82;21628;-71
2023/10/29 04:17:38;;;;;;;7.30;3.20;;;;;;;9.43;80.57;99796.05;1757454;82;21151;-71
2023/10/29 04:20:08;;;;;;;4.70;2.92;;;;;;;9.42;80.72;99793.00;1757276;82;21600;-71
2023/10/29 04:22:37;;;;;;;5.55;3.45;;;;;;;9.45;80.89;99798.06;1757482;82;21114;-71
2023/10/29 04:25:07;;;;;;;5.30;2.70;;;;;;;9.47;80.90;99778.19;1757265;81;21774;-72
2023/10/29 04:27:36;;;;;;;4.20;2.72;;;;;;;9.49;80.84;99769.25;1757612;82;21147;-71
2023/10/29 04:30:07;;;;;;;4.20;3.02;;;;;;;9.48;80.74;99774.41;1757348;80;21154;-71
2023/10/29 04:32:36;;;;;;;4.78;3.02;;;;;;;9.43;80.79;99771.44;1757261;80;21099;-71
2023/10/29 04:35:06;;;;;;;4.45;2.70;;;;;;;9.42;80.93;99782.06;1757252;82;21119;-71
2023/10/29 04:37:35;;;;;;;6.28;2.87;;;;;;;9.39;81.04;99784.68;1757260;81;21115;-72
2023/10/29 04:40:06;;;;;;;5.37;2.92;;;;;;;9.39;81.05;99785.20;1757274;82;21095;-71
2023/10/29 04:42:34;;;;;;;4.45;2.98;;;;;;;9.35;81.04;99790.77;1757242;81;21099;-70
2023/10/29 04:45:06;;;;;;;6.12;3.22;;;;;;;9.32;81.15;99792.02;1757501;80;21578;-72
2023/10/29 04:47:36;;;;;;;4.83;2.87;;;;;;;9.28;81.15;99791.27;1757240;82;21087;-71
2023/10/29 04:50:07;;;;;;;6.42;3.50;;;;;;;9.21;81.36;99800.80;1757476;82;21186;-70
2023/10/29 04:52:35;;;;;;;5.00;3.02;;;;;;;9.18;81.52;99803.42;1757530;80;21115;-72
2023/10/29 04:55:05;;;;;;;5.25;2.90;;;;;;;9.16;81.62;99807.41;1757503;80;21107;-71
2023/10/29 04:57:34;;;;;;;4.15;2.90;;;;;;;9.12;81.87;99819.27;1757312;82;21131;-71
2023/10/29 05:00:05;;;;;;;3.80;2.72;;;;;;;9.08;82.15;99825.30;1757429;82;21177;-72
2023/10/29 05:02:35;;;;;;;4.17;2.98;;;;;;;9.03;82.54;99833.27;1757448;82;21555;-70
2023/10/29 05:05:06;;;;;;;5.70;2.80;;;;;;;8.93;83.05;99833.63;1757229;82;21198;-71
2023/10/29 05:07:36;;;;;;;5.08;3.17;;;;;;;8.93;83.59;99846.45;1757690;81;21166;-72
2023/10/29 05:10:07;;;;;;;9.58;5.40;;;;;;;8.94;83.60;99846.25;1756329;82;21142;-70
2023/10/29 05:12:36;;;;;;;7.80;4.95;;;;;;;8.96;83.46;99850.14;1733835;82;21147;-72
2023/10/29 05:15:06;;;;;;;8.15;5.12;;;;;;;9.01;83.40;99855.33;1744146;82;21162;-71
2023/10/29 05:17:35;;;;;;;6.42;4.92;;;;;;;9.07;83.36;99864.61;1743917;82;21640;-72
2023/10/29 05:20:09;;;;;;;5.85;3.98;;;;;;;9.12;83.23;99869.83;1744026;81;21559;-71
2023/10/29 05:22:39;;;;;;;6.35;4.50;;;;;;;9.16;82.94;99875.21;1744117;82;21143;-73
2023/10/29 05:25:08;;;;;;;7.12;4.37;;;;;;;9.21;82.71;99893.22;1743984;82;21155;-71
2023/10/29 05:27:37;;;;;;;4.42;3.15;;;;;;;9.25;82.48;99892.29;1744053;82;21091;-71
2023/10/29 05:30:08;;;;;;;7.20;3.15;;;;;;;9.27;82.44;99898.41;1744228;81;21112;-72
2023/10/29 05:32:36;;;;;;;7.55;5.30;;;;;;;9.29;82.21;99910.50;1744075;82;21108;-72
2023/10/29 05:35:06;;;;;;;9.35;5.25;;;;;;;9.33;82.14;99917.25;1744169;82;21088;-72
2023/10/29 05:37:35;;;;;;;5.97;3.60;;;;;;;9.35;82.18;99916.01;1744176;82;21104;-72
2023/10/29 05:40:07;;;;;;;7.33;3.90;;;;;;;9.39;82.04;99915.08;1744025;82;21150;-72
2023/10/29 05:42:36;;;;;;;7.62;4.42;;;;;;;9.42;81.85;99920.14;1744032;81;21079;-73
2023/10/29 05:45:07;;;;;;;8.78;4.58;;;;;;;9.44;81.49;99924.89;1744160;81;21166;-71
2023/10/29 05:47:36;;;;;;;14.68;5.20;;;;;;;9.45;81.34;99926.58;1744077;81;21138;-72
2023/10/29 05:50:06;;;;;;;11.38;6.17;;;;;;;9.48;81.29;99931.64;1744260;82;21116;-72
2023/10/29 05:52:35;;;;;;;12.85;6.20;;;;;;;9.50;81.31;99941.85;1744115;82;21171;-72
2023/10/29 05:55:06;;;;;;;12.20;6.45;;;;;;;9.51;81.26;99940.81;1744082;81;21163;-71
2023/10/29 05:57:36;;;;;;;10.53;4.67;;;;;;;9.54;81.25;99954.92;1744100;82;21159;-72
2023/10/29 06:00:07;;;;;;;9.63;4.92;;;;;;;9.55;80.94;99955.77;1744133;81;21155;-71
2023/10/29 06:02:39;;;;;;;10.88;4.92;;;;;;;9.57;80.71;99959.66;1744014;81;21585;-71
2023/10/29 06:05:08;;;;;;;9.35;4.83;;;;;;;9.59;80.82;99959.78;1744135;82;21147;-72
2023/10/29 06:07:41;;;;;;;7.95;4.25;;;;;;;9.63;80.84;99963.80;1743909;82;21139;-71
2023/10/29 06:10:10;;;;;;;9.90;4.12;;;;;;;9.67;80.62;99972.45;1743901;81;21558;-71
2023/10/29 06:12:40;;;;;;;6.42;3.42;;;;;;;9.67;80.10;99980.13;1733686;82;21100;-73
2023/10/29 06:15:10;;;;;;;6.30;3.62;;;;;;;9.65;80.01;99987.70;1743803;82;21535;-71
2023/10/29 06:17:41;;;;;;;5.47;3.70;;;;;;;9.64;79.99;99992.84;1743870;82;21120;-72
2023/10/29 06:20:16;;;;;;;6.87;3.87;;;;;;;9.65;80.06;99992.32;1744098;82;21167;-71
2023/10/29 06:22:42;;;;;;;5.90;4.10;;;;;;;9.62;80.03;99992.72;1744145;81;21116;-72
2023/10/29 06:25:11;;;;;;;6.08;3.62;;;;;;;9.60;80.24;99988.82;1744112;81;21170;-71
2023/10/29 06:27:40;;;;;;;6.05;3.58;;;;;;;9.62;80.68;99992.20;1743971;82;21623;-71
2023/10/29 06:30:14;;;;;;;6.53;3.55;;;;;;;9.62;81.01;99994.09;1744286;81;21167;-72
2023/10/29 06:32:43;;;;;;;6.20;3.90;;;;;;;9.64;81.37;99994.21;1743840;82;21615;-72
2023/10/29 06:35:12;;;;;;;6.20;3.98;;;;;;;9.68;81.73;99998.23;1743893;82;21550;-71
2023/10/29 06:37:41;;;;;;;6.85;4.17;;;;;;;9.71;81.81;100000.56;1744036;82;21115;-71
2023/10/29 06:40:12;;;;;;;5.50;3.80;;;;;;;9.73;82.04;100000.36;1743998;82;21134;-73
2023/10/29 06:42:42;;;;;;;9.98;4.08;;;;;;;9.77;82.00;99992.11;1744124;82;21539;-73
2023/10/29 06:45:11;;;;;;;9.33;4.15;;;;;;;9.78;82.09;99983.70;1743869;82;21611;-73
2023/10/29 06:47:41;;;;;;;6.75;4.22;;;;;;;9.82;82.17;99978.14;1744086;82;21171;-72
2023/10/29 06:50:11;;;;;;;7.20;4.65;;;;;;;9.86;82.18;99997.73;1744017;82;21704;-72
2023/10/29 06:52:40;;;;;;;11.00;6.37;;;;;;;9.91;82.22;100012.17;1744205;82;21128;-73
2023/10/29 06:55:09;;;;;;;9.85;4.53;;;;;;;9.97;82.44;100028.62;1744222;82;21159;-71
2023/10/29 06:57:37;;;;;;;7.67;4.25;;;;;;;10.05;82.49;100026.23;1744023;82;21350;-71
2023/10/29 07:00:08;;;;;;;6.60;4.08;;;;;;;10.11;82.29;100033.63;1744076;82;21155;-71
2023/10/29 07:02:37;;;;;;;6.80;4.58;;;;;;;10.18;82.16;100035.88;1744206;81;21126;-71
2023/10/29 07:05:08;;;;;;;5.72;3.62;;;;;;;10.23;81.93;100039.41;1744157;82;21174;-71
2023/10/29 07:07:37;;;;;;;6.42;4.05;;;;;;;10.29;81.75;100038.58;1744224;81;21181;-71
2023/10/29 07:10:07;;;;;;;10.90;4.55;;;;;;;10.34;81.66;100036.92;1743958;82;21115;-72
2023/10/29 07:12:36;;;;;;;7.20;4.80;;;;;;;10.39;81.29;100039.05;1743879;82;21179;-72
2023/10/29 07:15:09;;;;;;;8.28;5.10;;;;;;;10.43;81.15;100044.46;1744120;82;21138;-72
2023/10/29 07:17:39;;;;;;;8.03;4.97;;;;;;;10.45;81.09;100048.68;1744159;82;21612;-72
2023/10/29 07:20:10;;;;;;;10.30;5.30;;;;;;;10.46;80.96;100042.16;1743986;82;21581;-72
2023/10/29 07:22:39;;;;;;;7.60;5.00;;;;;;;10.48;80.93;100053.75;1744017;82;21593;-72
2023/10/29 07:25:08;;;;;;;7.40;4.70;;;;;;;10.48;80.71;100061.97;1744162;82;21139;-72
2023/10/29 07:27:38;;;;;;;9.70;5.40;;;;;;;10.46;80.54;100062.70;1744042;81;21149;-72
2023/10/29 07:30:09;;;;;;;7.72;4.53;;;;;;;10.43;80.39;100055.41;1743946;82;21589;-72
2023/10/29 07:32:38;;;;;;;9.13;5.28;;;;;;;10.41;80.45;100056.98;1744288;82;21134;-72
2023/10/29 07:35:08;;;;;;;10.13;5.53;;;;;;;10.41;80.38;100058.88;1743971;82;21183;-72
2023/10/29 07:37:36;;;;;;;7.97;4.78;;;;;;;10.42;80.46;100060.05;1744140;82;21511;-71
2023/10/29 07:40:09;;;;;;;7.65;4.60;;;;;;;10.43;80.28;100065.84;1744360;82;21142;-72
2023/10/29 07:42:37;;;;;;;7.33;4.87;;;;;;;10.44;80.02;100064.80;1744198;82;21574;-72
2023/10/29 07:45:07;;;;;;;7.33;4.58;;;;;;;10.43;79.64;100061.73;1743973;82;21187;-73
2023/10/29 11:01:55;;;;;;;5.53;3.37;;;;;;;13.51;78.13;100127.08;1785652;80;28058;-74
2023/10/29 11:04:26;;;;;;;9.80;4.42;;;;;;;13.52;77.80;100132.89;1790544;80;21154;-75
2023/10/29 11:06:56;;;;;;;7.75;3.72;;;;;;;13.55;77.50;100137.10;1759166;81;21631;-75
2023/10/29 11:09:25;;;;;;;5.72;3.70;;;;;;;13.57;77.10;100144.08;1759161;81;21093;-73
2023/10/29 11:11:55;;;;;;;5.25;3.83;;;;;;;13.59;76.87;100144.69;1752762;81;21166;-74
2023/10/29 11:14:25;;;;;;;6.97;3.30;;;;;;;13.62;77.00;100156.63;1757568;82;21111;-74
2023/10/29 11:16:59;;;;;;;4.45;3.40;;;;;;;13.62;76.41;100164.89;1752940;81;21120;-74
2023/10/29 11:19:47;;;;;;;7.55;3.50;;;;;;;13.62;76.69;100151.12;1762532;81;21186;-74
2023/10/29 11:22:29;;;;;;;4.17;3.05;;;;;;;13.63;76.88;100152.81;1762711;81;21118;-75
2023/10/29 11:25:14;;;;;;;6.60;3.50;;;;;;;13.59;76.83;100158.45;1765211;80;21080;-73
2023/10/29 11:27:46;;;;;;;5.65;3.55;;;;;;;13.57;77.03;100156.45;1790625;80;21127;-73
2023/10/29 11:30:21;;;;;;;5.90;3.80;;;;;;;13.56;77.21;100163.03;1764717;80;21131;-73
2023/10/29 11:33:22;;;;;;;5.67;3.60;;;;;;;13.57;77.54;100159.74;1790730;80;21598;-73
2023/10/29 11:35:47;;;;;;;5.92;4.20;;;;;;;13.55;77.43;100147.58;1790608;80;21366;-74
2023/10/29 11:38:30;;;;;;;6.90;3.58;;;;;;;13.52;77.38;100147.19;1790614;80;21639;-73
2023/10/29 11:40:59;;;;;;;7.92;4.08;;;;;;;13.51;77.60;100149.09;1790768;80;21132;-72
2023/10/29 11:43:28;;;;;;;8.38;3.62;;;;;;;13.53;78.06;100155.22;1790761;80;21108;-74
2023/10/29 11:46:00;;;;;;;7.25;3.67;;;;;;;13.56;78.00;100153.40;1790651;80;21575;-73
2023/10/29 11:48:29;;;;;;;6.60;3.95;;;;;;;13.58;77.99;100165.03;1790536;80;21152;-75
2023/10/29 11:51:11;;;;;;;7.67;4.67;;;;;;;13.60;77.78;100157.92;1790501;79;21228;-72
2023/10/29 11:53:40;;;;;;;9.63;5.15;;;;;;;13.58;77.44;100156.77;1789410;80;21131;-75
2023/10/29 11:56:09;;;;;;;7.87;4.10;;;;;;;13.57;77.63;100162.50;1790580;80;21593;-73
2023/10/29 11:58:38;;;;;;;9.10;4.20;;;;;;;13.60;77.69;100153.80;1790505;80;21147;-73
2023/10/29 12:01:07;;;;;;;7.08;4.10;;;;;;;13.62;77.74;100155.26;1764372;80;21139;-76
2023/10/29 12:03:36;;;;;;;6.67;3.77;;;;;;;13.66;77.95;100147.95;1789960;80;21163;-74
2023/10/29 12:06:06;;;;;;;6.35;3.62;;;;;;;13.68;77.80;100148.58;1790045;80;21831;-73
2023/10/29 12:08:34;;;;;;;7.45;4.00;;;;;;;13.70;77.55;100143.69;1790243;80;21096;-75
2023/10/29 12:11:03;;;;;;;8.10;4.12;;;;;;;13.75;77.71;100143.86;1790204;80;21124;-73
2023/10/29 12:13:41;;;;;;;7.30;3.77;;;;;;;13.76;77.82;100146.92;1790185;80;21107;-72
2023/10/29 12:16:12;;;;;;;9.00;4.20;;;;;;;13.80;77.59;100143.49;1790191;80;21167;-74
2023/10/29 12:18:41;;;;;;;5.53;3.52;;;;;;;13.85;77.71;100142.81;1790162;80;21558;-74
2023/10/29 12:21:10;;;;;;;5.97;4.08;;;;;;;13.90;77.47;100140.23;1790025;80;21155;-74
2023/10/29 12:23:39;;;;;;;7.12;4.00;;;;;;;13.94;77.46;100145.06;1789080;79;21579;-76
2023/10/29 12:26:10;;;;;;;6.53;3.98;;;;;;;14.00;77.27;100148.81;1774318;80;21136;-76
2023/10/29 12:28:38;;;;;;;7.62;3.75;;;;;;;14.03;76.59;100152.50;1779165;80;21393;-76
2023/10/29 12:31:27;;;;;;;7.60;3.90;;;;;;;14.04;76.48;100152.80;1735704;83;21619;-74
2023/10/29 12:33:59;;;;;;;6.67;3.35;;;;;;;14.06;75.98;100154.80;1725744;81;21165;-74
2023/10/29 12:36:28;;;;;;;5.17;3.33;;;;;;;14.06;75.96;100160.84;1763309;81;21599;-74
2023/10/29 12:38:58;;;;;;;6.25;3.52;;;;;;;14.04;75.61;100150.05;1763320;81;21614;-74
2023/10/29 12:41:30;;;;;;;6.20;3.50;;;;;;;14.05;75.61;100151.73;1763277;81;21150;-75
2023/10/29 12:43:59;;;;;;;7.50;3.42;;;;;;;14.05;75.44;100147.61;1760461;81;21150;-75
2023/10/29 12:46:29;;;;;;;7.25;3.30;;;;;;;14.05;74.94;100149.52;1763579;81;21145;-73
2023/10/29 12:49:01;;;;;;;4.45;2.90;;;;;;;14.05;74.56;100154.49;1763562;81;21142;-74
2023/10/29 12:51:39;;;;;;;4.90;3.02;;;;;;;14.05;74.30;100148.14;1763394;81;21122;-76
2023/10/29 12:54:29;;;;;;;6.35;2.90;;;;;;;14.05;74.21;100156.41;1763426;81;21676;-73
2023/10/29 12:57:01;;;;;;;9.45;2.90;;;;;;;14.06;74.16;100159.47;1763254;81;21174;-73
2023/10/29 12:59:32;;;;;;;7.33;3.05;;;;;;;14.07;73.97;100156.48;1766775;81;21112;-75
2023/10/29 13:02:05;;;;;;;4.62;3.15;;;;;;;14.07;73.54;100155.64;1717739;82;21118;-75
2023/10/29 13:04:35;;;;;;;5.05;3.08;;;;;;;14.05;73.51;100154.49;1740370;82;21573;-77
2023/10/29 13:07:11;;;;;;;5.65;3.17;;;;;;;14.05;73.38;100148.14;1740301;82;21166;-73
2023/10/29 13:09:41;;;;;;;5.40;2.90;;;;;;;14.05;73.34;100149.52;1740405;82;21130;-76
2023/10/29 13:12:11;;;;;;;7.08;3.30;;;;;;;14.03;73.30;100145.61;1739969;82;21165;-75
2023/10/29 13:14:40;;;;;;;5.80;2.70;;;;;;;14.02;73.42;100145.84;1740318;82;21117;-77
2023/10/29 13:17:09;;;;;;;4.87;2.92;;;;;;;14.01;73.49;100150.50;1723697;82;21596;-74
2023/10/29 13:19:38;;;;;;;5.78;4.65;;;;;;;13.98;73.14;100146.83;1740240;82;21656;-77
2023/10/29 13:22:07;;;;;;;7.50;4.47;;;;;;;13.95;72.88;100148.13;1740327;82;21452;-76
2023/10/29 13:24:36;;;;;;;6.08;3.30;;;;;;;13.92;72.85;100158.21;1740124;82;21593;-75
2023/10/29 13:27:06;;;;;;;3.98;3.10;;;;;;;13.88;72.63;100165.23;1740136;82;21153;-75
2023/10/29 13:29:39;;;;;;;5.75;3.40;;;;;;;13.86;72.45;100177.55;1740134;82;21123;-74
2023/10/29 13:32:07;;;;;;;8.80;4.10;;;;;;;13.82;72.93;100168.05;1740001;82;21145;-74
2023/10/29 13:34:37;;;;;;;10.95;5.90;;;;;;;13.79;73.39;100172.63;1738332;82;21603;-75
2023/10/29 13:37:05;;;;;;;9.68;5.95;;;;;;;13.74;74.15;100182.09;1738793;82;21134;-75
2023/10/29 13:39:34;;;;;;;11.55;5.67;;;;;;;13.67;74.58;100178.55;1738456;82;21641;-75
2023/10/29 13:42:07;;;;;;;9.38;6.22;;;;;;;13.60;75.02;100190.42;1738629;82;21177;-76
2023/10/29 13:44:39;;;;;;;8.43;6.00;;;;;;;13.55;75.44;100193.00;1738658;82;21165;-74
2023/10/29 13:47:08;;;;;;;9.48;6.03;;;;;;;13.49;75.48;100189.77;1738645;82;21654;-73
2023/10/29 13:49:37;;;;;;;9.78;5.90;;;;;;;13.44;75.79;100198.38;1738357;82;21584;-74
2023/10/29 13:52:06;;;;;;;10.13;5.80;;;;;;;13.38;76.11;100202.85;1738627;82;21113;-76
2023/10/29 13:54:35;;;;;;;9.20;6.03;;;;;;;13.33;76.26;100202.14;1738578;82;21140;-75
2023/10/29 13:57:04;;;;;;;11.10;6.22;;;;;;;13.28;76.32;100203.86;1738479;82;21189;-74
2023/10/29 13:59:33;;;;;;;11.40;6.30;;;;;;;13.23;76.37;100200.41;1738681;82;21133;-76
2023/10/29 14:02:02;;;;;;;11.93;6.60;;;;;;;13.18;76.58;100214.50;1758225;81;21091;-76
2023/10/29 14:04:32;;;;;;;14.43;7.00;;;;;;;13.15;76.69;100219.03;1767497;81;21154;-76
2023/10/29 14:07:01;;;;;;;14.13;7.40;;;;;;;13.11;76.69;100223.28;1767524;81;21569;-73
2023/10/29 14:09:31;;;;;;;9.68;6.42;;;;;;;13.05;76.67;100224.16;1767588;81;21204;-76
2023/10/29 14:12:00;;;;;;;8.58;6.05;;;;;;;12.98;76.68;100229.66;1767441;81;21138;-74
2023/10/29 14:14:30;;;;;;;15.05;7.58;;;;;;;12.92;76.68;100235.50;1767714;81;21168;-75
2023/10/29 14:17:02;;;;;;;10.13;6.85;;;;;;;12.86;76.84;100237.73;1767531;81;21147;-74
2023/10/29 14:19:30;;;;;;;13.10;7.17;;;;;;;12.81;76.88;100234.80;1767622;81;21574;-76
2023/10/29 14:21:59;;;;;;;12.23;7.30;;;;;;;12.74;77.02;100232.59;1767498;81;21640;-75
2023/10/29 14:24:30;;;;;;;10.03;6.03;;;;;;;12.67;77.33;100231.77;1767637;81;21178;-74
2023/10/29 14:26:59;;;;;;;11.28;6.90;;;;;;;12.63;77.62;100232.73;1767726;81;21176;-75
2023/10/29 14:29:28;;;;;;;12.30;6.42;;;;;;;12.59;77.79;100235.59;1767474;81;21281;-75
2023/10/29 14:31:57;;;;;;;10.70;6.58;;;;;;;12.56;77.97;100240.15;1735465;81;21648;-76
2023/10/29 14:34:26;;;;;;;12.47;6.70;;;;;;;12.52;78.11;100238.05;1735740;81;21552;-77
2023/10/29 14:36:56;;;;;;;11.63;6.35;;;;;;;12.47;78.29;100239.22;1735723;83;21202;-74
2023/10/29 14:39:25;;;;;;;11.63;6.47;;;;;;;12.41;78.49;100239.55;1717594;83;21565;-76
2023/10/29 14:41:54;;;;;;;11.50;5.87;;;;;;;12.36;78.65;100236.06;1735325;83;21190;-75
2023/10/29 14:44:24;;;;;;;11.90;7.25;;;;;;;12.31;78.86;100239.95;1735868;83;21126;-75
2023/10/29 14:46:53;;;;;;;16.27;7.20;;;;;;;12.24;79.26;100234.98;1735790;83;21150;-74
2023/10/29 14:49:22;;;;;;;12.50;7.85;;;;;;;12.16;79.53;100225.59;1735580;83;21122;-74
2023/10/29 14:51:52;;;;;;;11.75;6.97;;;;;;;12.12;79.76;100232.56;1735738;83;21130;-75
2023/10/29 14:54:21;;;;;;;10.85;6.67;;;;;;;12.06;79.92;100233.41;1735782;81;21126;-73
2023/10/29 14:56:51;;;;;;;9.40;6.35;;;;;;;12.01;80.16;100234.58;1735833;83;21162;-74
2023/10/29 14:59:20;;;;;;;11.33;7.53;;;;;;;11.99;80.35;100234.78;1735822;81;21131;-73